ASP weather

Alice Springs Airport
Alice Springs, Northern Territory, Australia

Public forecast

Using degrees Celsius for public forecast. Weather courtesy of forecast.io.

Current aviation weather report (METAR) for Alice Springs Airport

Retrieved 2019/10/18 09:30 UTC (12 minutes ago):

YBAS 180930Z AUTO 11008KT 9999 // NCD 31/M02 Q1017 RF000/0000

Aviation forecast (TAF) for Alice Springs Airport

Forecast is more than 6 hours old.

Retrieved 2019-10-18 00:00 UTC (10 hours ago):

TAF YBAS 172235Z 1800/1824 11010KT CAVOK PROB30 TEMPO 1804/1811 VRB25G40KT 6000 TSRA SCT120CB